Valley Peak, Santa Cruz Island Reserve, California Weather observations

Data are for 10 minute period ending at time listed.
 Day   Time   Solar   Ave.   Ave.  Ave.  Vector  Max.   Baro.   Total    
  of    of     Rad.   Air    Rel.  Wind   Wind   Wind  Press.  Precip.   
Year   Day            Temp.  Hum.  Speed  Dir.   Gust                    
2015   (PST)  Kw/m2    F      %     mph   deg.    mph    mb.     in.     
-------------------------------------------------------------------------
 146   17:40   0.08   56.9    77    2.7    46     4.5   965.5    0.00 
 146   17:50   0.08   56.9    76    1.8    52     4.5   965.4    0.00 
 146   18:00   0.06   56.8    76    1.4    31     3.0   965.4    0.00 
 146   18:10   0.05   55.2    80    2.9    24     4.7   965.3    0.00 
 146   18:20   0.04   54.1    83    4.5    25     5.8   965.2    0.00 
 146   18:30   0.03   53.0    87    5.8    18     7.2   965.2    0.00 
 146   18:40   0.02   52.2    89    5.5    13     7.7   965.2    0.00 
 146   18:50   0.01   52.3    89    7.5     7     9.9   965.2    0.00 
 146   19:00   0.00   52.4    89    8.5     6    10.2   965.1    0.00 
 146   19:10   0.00   52.8    88    5.8   358     9.8   965.2    0.00 
 146   19:20   0.00   52.8    86    2.5     5     5.4   965.2    0.00 
 146   19:30   0.00   52.2    88    2.2   269     3.8   965.2    0.00 
 146   19:40   0.00   52.4    88    2.8   302     3.8   965.2    0.00 
 146   19:50   0.00   51.7    89    5.8   259    10.4   965.2    0.00 
 146   20:00   0.00   51.0    92    7.4   250     9.5   965.3    0.00 
 146   20:10   0.00   51.0    92    8.6   250    10.7   965.3    0.00 
 146   20:20   0.00   50.7    94    8.5   252    10.2   965.4    0.00 
 146   20:30   0.00   50.7    94    7.4   257    10.1   965.4    0.00 
 146   20:40   0.00   50.7    95    4.5   257     8.8   965.4    0.00 
 146   20:50   0.00   51.3    94    1.0   337     2.6   965.5    0.00 
 146   21:00   0.00   52.3    91    1.3   136     2.9   965.6    0.00 
 146   21:10   0.00   53.4    86    0.3   304     1.5   965.6    0.00 
 146   21:20   0.00   54.0    84    2.6   166     5.1   965.7    0.00 
 146   21:30   0.00   54.3    84    3.7   163     5.3   965.7    0.00 
 146   21:40   0.00   54.1    84    3.6   178     4.9   965.8    0.00 
 146   21:50   0.00   53.2    85    4.6   231     7.3   965.8    0.00 
 146   22:00   0.00   51.8    89    5.3   241     7.5   965.7    0.00 
 146   22:10   0.00   51.5    89    4.3   237     6.6   965.6    0.00 
 146   22:20   0.00   51.5    89    5.1   218     6.9   965.6    0.00 
 146   22:30   0.00   51.5    89    6.8   217     8.4   965.6    0.00 
 146   22:40   0.00   51.4    90    7.4   209     9.2   965.7    0.00 
 146   22:50   0.00   51.7    90    7.6   194    10.2   965.8    0.00 
 146   23:00   0.00   52.2    89    6.3   178     8.0   965.8    0.00 
 146   23:10   0.00   52.4    89    6.1   161     6.7   965.8    0.00 
 146   23:20   0.00   52.0    89    6.0   180     7.2   965.7    0.00 
 146   23:30   0.00   51.3    90    6.2   208     7.8   965.8    0.00 
 146   23:40   0.00   51.2    90    6.8   215     8.3   965.8    0.00 
 146   23:50   0.00   50.9    91    7.2   222     9.6   965.9    0.00 
 147    0:00   0.00   50.9    91    5.9   231     8.2   965.9    0.00 
 147    0:10   0.00   51.1    90    5.6   250     7.7   965.9    0.00 
 147    0:20   0.00   51.0    90    6.3   258     8.7   965.9    0.00 
 147    0:30   0.00   50.2    93    8.0   259     9.7   965.8    0.00 
 147    0:40   0.00   49.9    94    7.6   262    10.7   965.7    0.00 
 147    0:50   0.00   50.0    94    8.1   262     9.7   965.6    0.00 
 147    1:00   0.00   49.8    94    8.0   264     9.6   965.6    0.00 
 147    1:10   0.00   49.7    94    7.9   266     9.9   965.7    0.00 
 147    1:20   0.00   50.1    93    4.6   289     6.5   965.6    0.00 
 147    1:30   0.00   51.1    91    2.2     5     4.4   965.5    0.00 
 147    1:40   0.00   50.9    90    3.2    58     4.9   965.4    0.00 
 147    1:50   0.00   50.6    92    4.3    79     5.5   965.3    0.00 
 147    2:00   0.00   50.5    93    4.7   126     5.8   965.2    0.00 
 147    2:10   0.00   50.5    94    5.4   129     7.7   965.1    0.00 
 147    2:20   0.00   50.8    96    5.2   148     8.3   965.1    0.00 
 147    2:30   0.00   51.2    97    5.3   146     8.9   965.1    0.00 
 147    2:40   0.00   51.1    97    6.3   173    10.3   965.2    0.00 
 147    2:50   0.00   51.1    98    5.6   165     8.7   965.2    0.00 
 147    3:00   0.00   51.1    98    3.9   175     6.1   965.2    0.00 
 147    3:10   0.00   51.2    98    3.0   153     6.1   965.2    0.00 
 147    3:20   0.00   51.3    98    3.1   145     6.8   965.3    0.00 
 147    3:30   0.00   51.4    99    3.2   120     7.2   965.2    0.00 
 147    3:40   0.00   51.6    99    2.2   134     5.5   965.1    0.00 
 147    3:50   0.00   51.6    98    2.7   144     4.9   965.3    0.00 
 147    4:00   0.00   51.6    99    2.6   156     5.6   965.3    0.00 
 147    4:10   0.00   51.4    98    4.0   151     7.4   965.3    0.00 
 147    4:20   0.00   51.3    99    3.5   144     8.0   965.2    0.00 
 147    4:30   0.00   51.1    99    3.9   141    10.5   965.2    0.00 
 147    4:40   0.00   51.1    99    5.3   190     7.9   965.3    0.00 
 147    4:50   0.00   50.2    98    4.8   212     8.2   965.5    0.00 
 147    5:00   0.00   50.5    99    3.9   181     7.2   965.5    0.00 
 147    5:10   0.00   50.7    99    2.3   200     4.0   965.6    0.00 
 147    5:20   0.00   50.7    99    3.5   204     6.9   965.7    0.00 
 147    5:30   0.01   50.5    99    1.9   222     4.2   965.7    0.00 
 147    5:40   0.01   50.9    99    2.6   191     4.8   965.8    0.00 
 147    5:50   0.03   51.1    99    2.9   192     5.3   965.8    0.00 
 147    6:00   0.03   51.0    99    2.8   210     4.8   965.9    0.00 
 147    6:10   0.03   50.6    98    4.4   243     6.1   966.0    0.00 
 147    6:20   0.04   50.2    98    6.4   229     9.6   966.2    0.00 
 147    6:30   0.04   50.4    98    6.5   250     8.7   966.3    0.00 
 147    6:40   0.05   50.7    98    6.4   233     9.8   966.3    0.00 
 147    6:50   0.07   50.7    97    6.7   236     8.3   966.3    0.00 
 147    7:00   0.08   50.8    96    7.3   239     9.9   966.4    0.00 
 147    7:10   0.08   51.0    95    5.6   252     8.8   966.5    0.00 
 147    7:20   0.10   51.8    94    3.4   243     5.1   966.5    0.00 
 147    7:30   0.12   52.6    92    4.4   231     6.6   966.5    0.00 
 147    7:40   0.15   52.9    90    4.1   244     6.3   966.5    0.00 
 147    7:50   0.16   53.4    89    3.4   234     4.7   966.6    0.00 
 147    8:00   0.16   54.1    88    2.7   198     4.7   966.5    0.00 
 147    8:10   0.18   55.1    86    1.4   154     3.2   966.5    0.00 
 147    8:20   0.23   56.4    83    1.5   117     4.6   966.5    0.00 
 147    8:30   0.23   58.2    79    2.0   112     4.2   966.5    0.00 
 147    8:40   0.24   58.2    78    1.1   113     3.8   966.6    0.00 
 147    8:50   0.25   57.8    79    1.7   188     4.9   966.6    0.00 
 147    9:00   0.29   59.0    77    3.0    83     5.5   966.4    0.00 
 147    9:10   0.32   59.9    75    3.2    74     5.4   966.4    0.00 
 147    9:20   0.34   60.7    73    3.8    76     6.6   966.3    0.00 
 147    9:30   0.34   61.6    71    2.6    60     6.1   966.4    0.00 
 147    9:40   0.43   61.1    72    2.0    53     6.1   966.4    0.00 
 147    9:50   0.53   60.6    73    3.8    44     7.8   966.4    0.00 
 147   10:00   0.91   62.4    70    4.6    55     8.0   966.4    0.00 
 147   10:10   0.64   63.8    66    3.5    59     6.6   966.4    0.00 
 147   10:20   0.53   63.4    66    2.9    60     6.9   966.5    0.00 
 147   10:30   0.60   64.1    65    3.2    62     7.0   966.5    0.00 
 147   10:40   0.58   63.9    64    4.6    57     8.6   966.4    0.00 
 147   10:50   0.98   64.1    63    5.7    46    10.6   966.4    0.00 
 147   11:00   1.03   64.9    62    6.7    45    11.7   966.3    0.00 
 147   11:10   1.06   65.1    62    7.5    45    11.5   966.3    0.00 
 147   11:20   1.00   65.3    61    7.4    45    15.0   966.2    0.00 
 147   11:30   0.99   65.5    60    6.5    49    11.4   966.2    0.00 
 147   11:40   0.99   65.4    60    6.0    44    15.9   966.2    0.00 
 147   11:50   0.98   65.9    59    6.3    45    12.1   966.1    0.00 
 147   12:00   0.98   66.0    59    5.1    52    10.6   966.1    0.00 
 147   12:10   0.98   66.3    58    4.7    41    14.7   966.0    0.00 
 147   12:20   0.98   66.9    57    5.4    55    11.5   966.0    0.00 
 147   12:30   0.97   66.6    59    7.1    43    18.6   965.9    0.00 
 147   12:40   0.97   64.9    62   10.2    40    15.1   965.8    0.00 
 147   12:50   0.96   66.6    59    6.7    48    14.3   965.8    0.00 
 147   13:00   0.96   67.4    58    6.0    41    12.2   965.7    0.00 
 147   13:10   0.94   69.0    55    4.7    52    12.5   965.6    0.00 
 147   13:20   0.93   69.1    55    5.0    47    11.0   965.6    0.00 
 147   13:30   0.92   69.7    54    4.5    53     9.3   965.6    0.00 
 147   13:40   0.90   67.9    57    5.9    50    11.5   965.6    0.00 
 147   13:50   0.88   68.3    56    8.4    44    15.6   965.5    0.00 
 147   14:00   0.86   65.5    61    9.6    40    15.6   965.5    0.00 
 147   14:10   0.84   64.0    64   10.1    38    18.1   965.4    0.00 
 147   14:20   0.82   64.1    63   10.4    41    16.2   965.3    0.00 
 147   14:30   0.80   63.7    64    9.8    39    16.0   965.2    0.00 
 147   14:40   0.77   62.9    66   10.6    36    15.1   965.1    0.00 
 147   14:50   0.74   62.4    67   11.3    32    17.1   965.1    0.00 
 147   15:00   0.72   61.9    67   11.7    34    15.3   965.0    0.00 
 147   15:10   0.69   62.4    66   10.6    36    14.7   964.9    0.00 
 147   15:20   0.66   64.3    62    8.9    39    14.2   964.9    0.00 
 147   15:30   0.63   64.2    63    8.0    40    12.6   964.9    0.00 
 147   15:40   0.60   64.3    63    6.4    43    11.6   964.8    0.00 
 147   15:50   0.57   65.3    61    4.9    35     9.5   964.8    0.00 
 147   16:00   0.54   67.8    57    3.1    64     5.3   964.8    0.00 
 147   16:10   0.50   69.4    54    1.8    69     4.1   964.8    0.00 
 147   16:20   0.47   70.0    54    2.9    79     6.7   964.7    0.00 
 147   16:30   0.43   71.0    53    3.0   101     6.5   964.7    0.00 
 147   16:40   0.40   71.7    51    2.3    96     6.3   964.7    0.00 
 147   16:50   0.36   71.5    51    2.1    68     4.6   964.7    0.00 
 147   17:00   0.32   70.2    53    1.7    90     3.6   964.6    0.00 
 147   17:10   0.29   70.5    53    2.6    96     5.3   964.6    0.00 
 147   17:20   0.26   70.1    54    1.4    90     3.0   964.6    0.00 
 147   17:30   0.22   70.5    53    1.1   112     3.4   964.6    0.00 

Return to Valley Peak, Santa Cruz Island Reserve graphs page.


Western Regional Climate Center,wrcc@dri.edu